Archival Weather

Chicago O'Hare International

Chicago, Illinois (KORD)

Report from: Saturday, March 5, 2022 2:51 PM CST
Current time: Friday, July 1, 2022 2:13 PM CDT

Current weather
Weather history
Weather forecast

Temperature20.0°C (68.0°F)
Dew point11.1°C (52.0°F)
Winds 11 kts (5.7 m/s, 12.7 mph) South-Southwest (210°)
Wind gusts 24 kts (12.3 m/s, 27.6 mph)
Peak wind 29 kts (14.9 m/s, 33.4 mph) South (190°) at 14:25
Visibility10 mi. (16.1 km)
Clouds Ceiling: Broken clouds 3,600 ft. (1,097 m)
Broken clouds 8,000 ft. (2,438 m)
Altimeter29.75 in.Hg (1007 mB)
Relative humidity57 %
Density altitude968 ft. (295 m)
Sea-level pressure100.8 kPa (1008 mB, 29.75 in.Hg)
Remarks System requires maintenance
Automated weather observing station with precipitation discriminator
Pressure falling more slowly
Flight conditions Visual Meteorological Conditions
Raw dataKORD 052051Z 21011G24KT 10SM BKN036 BKN080 20/11 A2975 RMK AO2 PK WND 19029/2025 SLP075 T02000111 56029 $
An unhandled exception has occurred. See browser dev tools for details. Reload 🗙